createdAt,value
2022-12-03T00:01:57.493Z,1.08
2022-12-03T00:07:29.586Z,1.40
2022-12-03T00:09:57.867Z,1.30
2022-12-03T00:12:25.989Z,1.10
2022-12-03T00:17:57.875Z,1.20
2022-12-03T00:20:27.143Z,1.02
2022-12-03T00:22:55.371Z,1.10
2022-12-03T00:25:23.554Z,1.10
2022-12-03T00:27:51.757Z,1.63
2022-12-03T00:30:19.901Z,0.90
2022-12-03T00:32:47.991Z,0.90
2022-12-03T00:35:16.414Z,1.23
2022-12-03T00:37:44.541Z,1.20
2022-12-03T00:40:13.494Z,2.13
2022-12-03T00:42:41.660Z,1.40
2022-12-03T00:45:10.251Z,1.45
2022-12-03T00:47:38.519Z,1.58
2022-12-03T00:50:08.515Z,1.20
2022-12-03T00:52:36.590Z,1.13
2022-12-03T00:55:23.371Z,1.02
2022-12-03T00:57:51.531Z,1.15
2022-12-03T01:00:24.757Z,1.50
2022-12-03T01:02:53.426Z,1.88
2022-12-03T01:05:21.523Z,1.10
2022-12-03T01:07:49.752Z,0.90
2022-12-03T01:10:36.830Z,1.20
2022-12-03T01:13:04.922Z,0.85
2022-12-03T01:15:51.337Z,1.20
2022-12-03T01:18:37.972Z,1.40
2022-12-03T01:21:06.134Z,1.20
2022-12-03T01:23:34.138Z,1.42
2022-12-03T01:26:02.202Z,0.95
2022-12-03T01:28:31.834Z,1.00
2022-12-03T01:31:18.740Z,0.90
2022-12-03T01:33:46.966Z,1.42
2022-12-03T01:36:33.556Z,1.40
2022-12-03T01:39:02.835Z,1.38
2022-12-03T01:41:33.014Z,1.92
2022-12-03T01:44:01.774Z,1.88
2022-12-03T01:46:39.618Z,2.25
2022-12-03T01:49:15.268Z,2.10
2022-12-03T01:51:43.540Z,1.83
2022-12-03T01:54:26.643Z,1.92
2022-12-03T01:56:55.989Z,2.17
2022-12-03T01:59:29.786Z,1.70
2022-12-03T02:01:58.005Z,2.03
2022-12-03T02:04:26.520Z,2.03
2022-12-03T02:09:40.441Z,1.70
2022-12-03T02:12:08.628Z,2.00
2022-12-03T02:14:36.831Z,2.22
2022-12-03T02:20:11.700Z,2.08
2022-12-03T02:22:58.342Z,1.95
2022-12-03T02:25:29.501Z,2.50
2022-12-03T02:28:16.136Z,2.03
2022-12-03T02:30:44.297Z,2.38
2022-12-03T02:33:31.152Z,1.85
2022-12-03T02:36:03.499Z,1.80
2022-12-03T02:38:34.906Z,2.03
2022-12-03T02:41:08.196Z,1.75
2022-12-03T02:43:36.818Z,1.50
2022-12-03T02:46:05.775Z,2.40
2022-12-03T02:48:36.536Z,1.55
2022-12-03T02:51:23.548Z,1.58
2022-12-03T02:54:10.340Z,1.58
2022-12-03T02:57:16.135Z,1.15
2022-12-03T02:59:46.086Z,1.70
2022-12-03T03:02:15.207Z,1.60
2022-12-03T03:04:44.749Z,1.40
2022-12-03T03:07:13.304Z,1.35
2022-12-03T03:09:42.677Z,1.40
2022-12-03T03:12:11.724Z,1.42
2022-12-03T03:14:39.956Z,1.25
2022-12-03T03:17:08.582Z,1.48
2022-12-03T03:19:55.211Z,1.50
2022-12-03T03:22:34.458Z,1.48
2022-12-03T03:25:02.864Z,1.30
2022-12-03T03:27:31.383Z,1.23
2022-12-03T03:30:00.119Z,1.40
2022-12-03T03:32:29.275Z,1.30
2022-12-03T03:34:57.794Z,1.20
2022-12-03T03:37:26.712Z,1.52
2022-12-03T03:39:55.412Z,1.10
2022-12-03T03:42:24.110Z,1.23
2022-12-03T03:44:52.738Z,1.20
2022-12-03T03:47:21.586Z,1.15
2022-12-03T03:52:37.507Z,1.10
2022-12-03T03:55:07.595Z,1.33
2022-12-03T03:57:54.760Z,0.90
2022-12-03T04:00:23.022Z,1.00
2022-12-03T04:02:52.778Z,1.20
2022-12-03T04:05:23.286Z,0.85
2022-12-03T04:07:52.008Z,1.00
2022-12-03T04:10:38.548Z,1.27
2022-12-03T04:13:06.817Z,0.77
2022-12-03T04:18:38.988Z,1.20
2022-12-03T04:21:25.417Z,1.00
2022-12-03T04:23:53.507Z,1.10
2022-12-03T04:26:39.997Z,1.15
2022-12-03T04:29:08.658Z,1.08
2022-12-03T04:31:55.741Z,1.17
2022-12-03T04:35:01.050Z,1.00
2022-12-03T04:37:29.300Z,1.27
2022-12-03T04:40:15.834Z,1.20
2022-12-03T04:42:43.910Z,1.13
2022-12-03T04:45:12.007Z,1.15
2022-12-03T04:50:44.764Z,1.08
2022-12-03T04:53:31.143Z,1.33
2022-12-03T04:55:59.202Z,1.30
2022-12-03T05:01:12.560Z,0.65
2022-12-03T05:03:58.991Z,0.70
2022-12-03T05:09:13.186Z,1.23
2022-12-03T05:11:42.154Z,1.00
2022-12-03T05:14:10.797Z,0.98
2022-12-03T05:16:39.353Z,1.40
2022-12-03T05:19:09.126Z,1.10
2022-12-03T05:21:37.217Z,0.90
2022-12-03T05:24:05.785Z,1.20
2022-12-03T05:26:33.946Z,1.10
2022-12-03T05:29:21.146Z,1.02
2022-12-03T05:32:09.033Z,0.90
2022-12-03T05:34:37.151Z,0.80
2022-12-03T05:37:05.518Z,1.05
2022-12-03T05:39:33.485Z,0.90
2022-12-03T05:42:20.269Z,0.82
2022-12-03T05:44:48.379Z,0.98
2022-12-03T05:47:16.414Z,0.90
2022-12-03T05:49:44.341Z,1.27
2022-12-03T05:52:12.442Z,0.88
2022-12-03T05:54:40.404Z,0.90
2022-12-03T05:57:08.478Z,0.98
2022-12-03T05:59:36.437Z,1.20
2022-12-03T06:02:04.431Z,1.63
2022-12-03T06:04:32.468Z,1.05
2022-12-03T06:07:00.499Z,2.85
2022-12-03T06:09:28.479Z,1.10
2022-12-03T06:11:56.515Z,0.88
2022-12-03T06:14:24.490Z,1.23
2022-12-03T06:16:52.529Z,1.17
2022-12-03T06:19:20.440Z,1.27
2022-12-03T06:21:48.396Z,1.20
2022-12-03T06:24:16.375Z,1.42
2022-12-03T06:26:44.511Z,1.83
2022-12-03T06:29:12.527Z,1.30
2022-12-03T06:31:40.568Z,1.52
2022-12-03T06:34:08.590Z,1.42
2022-12-03T06:36:36.631Z,1.48
2022-12-03T06:39:04.878Z,1.85
2022-12-03T06:41:32.997Z,1.65
2022-12-03T06:44:01.068Z,1.73
2022-12-03T06:46:29.054Z,1.60
2022-12-03T06:48:57.090Z,1.77
2022-12-03T06:51:25.102Z,1.48
2022-12-03T06:53:53.022Z,1.60
2022-12-03T06:56:22.495Z,1.55
2022-12-03T06:58:50.681Z,1.42
2022-12-03T07:01:19.178Z,1.73
2022-12-03T07:03:47.678Z,1.70
2022-12-03T07:06:15.839Z,2.08
2022-12-03T07:08:43.869Z,1.25
2022-12-03T07:11:31.350Z,2.08
2022-12-03T07:14:05.172Z,2.00
2022-12-03T07:16:35.830Z,1.85
2022-12-03T07:19:05.296Z,1.42
2022-12-03T07:21:33.246Z,1.45
2022-12-03T07:24:01.288Z,1.83
2022-12-03T07:26:29.324Z,1.63
2022-12-03T07:28:57.687Z,1.80
2022-12-03T07:31:25.697Z,1.85
2022-12-03T07:33:53.872Z,1.80
2022-12-03T07:36:21.961Z,1.75
2022-12-03T07:38:49.980Z,1.83
2022-12-03T07:41:18.178Z,1.85
2022-12-03T07:43:46.254Z,1.67
2022-12-03T07:46:14.209Z,1.33
2022-12-03T07:48:42.270Z,1.92
2022-12-03T07:51:14.222Z,2.15
2022-12-03T07:56:28.814Z,1.50
2022-12-03T07:58:57.146Z,2.05
2022-12-03T08:01:25.158Z,2.03
2022-12-03T08:03:53.223Z,1.80
2022-12-03T08:06:21.211Z,1.70
2022-12-03T08:08:49.200Z,1.90
2022-12-03T08:11:17.123Z,1.88
2022-12-03T08:13:45.166Z,2.60
2022-12-03T08:16:20.092Z,2.00
2022-12-03T08:18:49.804Z,1.77
2022-12-03T08:21:20.286Z,2.28
2022-12-03T08:23:48.437Z,2.30
2022-12-03T08:26:23.481Z,2.60
2022-12-03T08:28:53.119Z,1.90
2022-12-03T08:31:33.658Z,1.63
2022-12-03T08:34:19.611Z,2.13
2022-12-03T08:36:51.133Z,1.70
2022-12-03T08:39:35.172Z,1.52
2022-12-03T08:42:46.807Z,1.60
2022-12-03T08:45:28.312Z,1.50
2022-12-03T08:47:57.523Z,1.40
2022-12-03T08:50:35.786Z,1.10
2022-12-03T08:56:30.317Z,1.00
2022-12-03T08:59:16.425Z,0.90
2022-12-03T09:01:46.265Z,0.98
2022-12-03T09:04:45.659Z,1.20
2022-12-03T09:07:13.829Z,1.05
2022-12-03T09:09:41.868Z,1.52
2022-12-03T09:12:09.987Z,1.73
2022-12-03T09:14:38.010Z,1.30
2022-12-03T09:17:06.181Z,1.00
2022-12-03T09:19:34.116Z,1.00
2022-12-03T09:22:20.658Z,0.98
2022-12-03T09:24:48.735Z,1.05
2022-12-03T09:27:16.650Z,1.27
2022-12-03T09:29:44.608Z,0.88
2022-12-03T09:32:17.891Z,0.80
2022-12-03T09:34:47.810Z,2.00
2022-12-03T09:37:15.915Z,0.60
2022-12-03T09:39:43.897Z,0.60
2022-12-03T09:42:12.280Z,1.25
2022-12-03T09:44:40.373Z,1.42
2022-12-03T09:47:27.018Z,0.90
2022-12-03T09:49:56.541Z,0.70
2022-12-03T09:52:27.803Z,0.60
2022-12-03T09:57:41.111Z,0.80
2022-12-03T10:00:30.101Z,0.93
2022-12-03T10:03:02.428Z,0.90
2022-12-03T10:05:30.644Z,0.90
2022-12-03T10:08:06.491Z,0.70
2022-12-03T10:10:35.687Z,1.02
2022-12-03T10:13:04.727Z,0.70
2022-12-03T10:15:33.081Z,1.02
2022-12-03T10:18:02.910Z,1.40
2022-12-03T10:20:30.970Z,1.40
2022-12-03T10:22:58.998Z,0.80
2022-12-03T10:25:27.018Z,0.80
2022-12-03T10:30:55.739Z,1.10
2022-12-03T10:33:30.062Z,1.38
2022-12-03T10:35:59.515Z,1.48
2022-12-03T10:38:27.605Z,0.93
2022-12-03T10:40:55.578Z,0.80
2022-12-03T10:43:25.478Z,1.10
2022-12-03T10:46:03.790Z,0.93
2022-12-03T10:49:11.568Z,0.93
2022-12-03T10:51:39.933Z,1.23
2022-12-03T10:54:35.858Z,1.63
2022-12-03T10:57:05.089Z,0.90
2022-12-03T10:59:35.304Z,1.85
2022-12-03T11:02:04.576Z,0.80
2022-12-03T11:04:34.724Z,0.63
2022-12-03T11:07:03.830Z,1.02
2022-12-03T11:09:33.581Z,0.77
2022-12-03T11:12:17.922Z,0.85
2022-12-03T11:14:52.839Z,0.77
2022-12-03T11:17:42.761Z,0.73
2022-12-03T11:20:25.868Z,0.98
2022-12-03T11:25:50.721Z,0.80
2022-12-03T11:28:18.855Z,0.60
2022-12-03T11:30:53.599Z,0.70
2022-12-03T11:33:27.214Z,0.90
2022-12-03T11:36:04.497Z,0.80
2022-12-03T11:41:15.484Z,0.82
2022-12-03T11:46:39.947Z,0.80
2022-12-03T11:49:34.716Z,0.60
2022-12-03T11:52:18.475Z,0.68
2022-12-03T11:55:16.772Z,0.50
2022-12-03T11:57:45.073Z,0.80
2022-12-03T12:00:22.353Z,1.20
2022-12-03T12:05:32.782Z,1.00
2022-12-03T12:08:02.907Z,1.60
2022-12-03T12:10:46.188Z,1.00
2022-12-03T12:13:54.910Z,1.00
2022-12-03T12:16:51.640Z,1.02
2022-12-03T12:19:31.660Z,0.90
2022-12-03T12:22:28.825Z,0.70
2022-12-03T12:25:27.422Z,0.70
2022-12-03T12:27:55.448Z,0.85
2022-12-03T12:30:24.322Z,0.65
2022-12-03T12:33:10.977Z,0.95
2022-12-03T12:35:39.097Z,0.50
2022-12-03T12:38:07.017Z,0.70
2022-12-03T12:40:37.757Z,0.57
2022-12-03T12:43:26.471Z,0.40
2022-12-03T12:46:46.158Z,0.50
2022-12-03T12:49:02.293Z,0.57
2022-12-03T12:51:30.282Z,0.40
2022-12-03T12:53:58.317Z,0.60
2022-12-03T12:56:30.366Z,0.73
2022-12-03T12:59:30.716Z,0.50
2022-12-03T13:02:01.731Z,0.50
2022-12-03T13:04:32.718Z,0.90
2022-12-03T13:07:00.686Z,0.60
2022-12-03T13:09:30.287Z,0.82
2022-12-03T13:12:01.333Z,0.60
2022-12-03T13:14:35.470Z,0.50
2022-12-03T13:17:15.680Z,0.65
2022-12-03T13:19:49.376Z,0.50
2022-12-03T13:22:23.296Z,0.85
2022-12-03T13:24:52.862Z,0.63
2022-12-03T13:27:32.112Z,0.40
2022-12-03T13:30:14.597Z,0.40
2022-12-03T13:32:43.727Z,0.50
2022-12-03T13:35:31.396Z,0.55
2022-12-03T13:37:59.653Z,0.40
2022-12-03T13:40:35.199Z,0.60
2022-12-03T13:43:21.838Z,0.52
2022-12-03T13:45:53.062Z,0.70
2022-12-03T13:50:54.059Z,0.63
2022-12-03T13:53:30.268Z,0.63
2022-12-03T13:56:38.356Z,0.65
2022-12-03T14:01:51.901Z,0.40
2022-12-03T14:07:23.610Z,0.50
2022-12-03T14:09:51.878Z,0.55
2022-12-03T14:12:33.903Z,0.40
2022-12-03T14:17:48.574Z,0.90
2022-12-03T14:20:16.716Z,0.55
2022-12-03T14:22:44.798Z,0.60
2022-12-03T14:25:12.783Z,0.60
2022-12-03T14:27:40.869Z,0.90
2022-12-03T14:30:09.600Z,0.50
2022-12-03T14:32:37.608Z,0.52
2022-12-03T14:35:09.885Z,0.68
2022-12-03T14:37:38.220Z,0.50
2022-12-03T14:40:09.251Z,0.50
2022-12-03T14:42:37.378Z,0.40
2022-12-03T14:45:06.361Z,0.40
2022-12-03T14:47:34.270Z,0.77
2022-12-03T14:50:02.404Z,0.65
2022-12-03T14:52:30.264Z,0.70
2022-12-03T14:54:58.143Z,1.10
2022-12-03T14:57:26.279Z,0.43
2022-12-03T14:59:54.690Z,0.38
2022-12-03T15:02:22.983Z,0.60
2022-12-03T15:04:51.091Z,0.50
2022-12-03T15:07:19.315Z,0.57
2022-12-03T15:09:47.417Z,0.50
2022-12-03T15:12:15.503Z,0.47
2022-12-03T15:14:43.578Z,0.32
2022-12-03T15:17:11.762Z,0.50
2022-12-03T15:19:39.829Z,1.23
2022-12-03T15:22:07.895Z,0.88
2022-12-03T15:24:35.879Z,0.55
2022-12-03T15:27:03.940Z,0.60
2022-12-03T15:29:33.105Z,1.67
2022-12-03T15:32:03.361Z,0.95
2022-12-03T15:34:31.380Z,0.63
2022-12-03T15:36:59.411Z,0.60
2022-12-03T15:39:27.765Z,0.55
2022-12-03T15:41:55.914Z,1.33
2022-12-03T15:44:23.929Z,0.93
2022-12-03T15:46:51.934Z,0.85
2022-12-03T15:49:20.313Z,1.17
2022-12-03T15:51:48.367Z,0.77
2022-12-03T15:54:16.313Z,0.93
2022-12-03T15:56:44.288Z,1.02
2022-12-03T15:59:13.343Z,0.70
2022-12-03T16:01:41.228Z,0.43
2022-12-03T16:04:09.205Z,0.73
2022-12-03T16:06:37.281Z,0.40
2022-12-03T16:09:05.272Z,1.10
2022-12-03T16:11:33.218Z,0.43
2022-12-03T16:14:01.232Z,0.50
2022-12-03T16:16:29.415Z,0.35
2022-12-03T16:18:58.068Z,0.60
2022-12-03T16:21:27.299Z,0.30
2022-12-03T16:23:56.064Z,0.30
2022-12-03T16:26:24.447Z,0.32
2022-12-03T16:28:52.643Z,0.98
2022-12-03T16:31:20.761Z,0.40
2022-12-03T16:33:49.301Z,0.40
2022-12-03T16:36:17.280Z,0.40
2022-12-03T16:38:45.334Z,0.40
2022-12-03T16:41:13.271Z,0.60
2022-12-03T16:44:02.232Z,0.38
2022-12-03T16:46:30.263Z,0.50
2022-12-03T16:49:17.530Z,0.60
2022-12-03T16:51:45.537Z,0.55
2022-12-03T16:54:13.665Z,0.50
2022-12-03T16:56:41.711Z,0.57
2022-12-03T16:59:09.825Z,0.40
2022-12-03T17:01:37.978Z,0.50
2022-12-03T17:04:05.981Z,0.65
2022-12-03T17:06:34.057Z,0.50
2022-12-03T17:09:02.052Z,0.73
2022-12-03T17:11:30.122Z,0.50
2022-12-03T17:13:58.067Z,0.63
2022-12-03T17:16:26.136Z,0.50
2022-12-03T17:18:54.235Z,0.50
2022-12-03T17:21:22.186Z,0.50
2022-12-03T17:23:51.300Z,0.43
2022-12-03T17:26:20.204Z,0.40
2022-12-03T17:28:48.130Z,0.40
2022-12-03T17:31:41.439Z,0.38
2022-12-03T17:34:10.293Z,0.50
2022-12-03T17:36:38.359Z,0.40
2022-12-03T17:39:24.983Z,0.40
2022-12-03T17:41:53.245Z,0.50
2022-12-03T17:44:21.560Z,0.40
2022-12-03T17:46:49.646Z,0.40
2022-12-03T17:52:03.505Z,0.32
2022-12-03T17:54:55.150Z,0.32
2022-12-03T17:57:19.550Z,0.40
2022-12-03T17:59:47.536Z,0.30
2022-12-03T18:02:15.858Z,0.40
2022-12-03T18:04:43.793Z,0.40
2022-12-03T18:07:11.795Z,0.20
2022-12-03T18:09:39.739Z,0.50
2022-12-03T18:12:07.873Z,0.50
2022-12-03T18:14:36.655Z,0.30
2022-12-03T18:17:04.645Z,0.95
2022-12-03T18:19:32.641Z,0.50
2022-12-03T18:22:00.654Z,0.40
2022-12-03T18:24:28.641Z,0.50
2022-12-03T18:26:56.757Z,0.73
2022-12-03T18:29:24.838Z,0.32
2022-12-03T18:31:52.916Z,0.65
2022-12-03T18:34:21.010Z,0.60
2022-12-03T18:36:49.583Z,0.40
2022-12-03T18:39:27.453Z,0.85
2022-12-03T18:44:23.435Z,0.52
2022-12-03T18:46:53.935Z,0.57
2022-12-03T18:49:22.657Z,0.40
2022-12-03T18:51:54.560Z,0.50
2022-12-03T18:54:26.887Z,0.50
2022-12-03T18:56:54.995Z,0.63
2022-12-03T18:59:23.019Z,0.75
2022-12-03T19:01:51.011Z,0.60
2022-12-03T19:04:18.956Z,0.45
2022-12-03T19:06:47.006Z,1.10
2022-12-03T19:09:15.014Z,0.98
2022-12-03T19:11:43.163Z,1.23
2022-12-03T19:14:11.542Z,1.75
2022-12-03T19:16:57.905Z,1.85
2022-12-03T19:19:27.679Z,3.30
2022-12-03T19:21:56.206Z,2.15
2022-12-03T19:24:42.988Z,1.27
2022-12-03T19:27:10.986Z,0.70
2022-12-03T19:29:39.076Z,0.55
2022-12-03T19:32:07.306Z,0.43
2022-12-03T19:34:35.635Z,0.50
2022-12-03T19:37:22.186Z,0.50
2022-12-03T19:39:53.844Z,0.50
2022-12-03T19:42:22.154Z,0.40
2022-12-03T19:44:50.261Z,0.20
2022-12-03T19:47:18.317Z,0.50
2022-12-03T19:49:46.439Z,0.50
2022-12-03T19:52:14.470Z,0.52
2022-12-03T19:55:01.446Z,0.95
2022-12-03T19:57:50.636Z,0.32
2022-12-03T20:00:37.065Z,0.60
2022-12-03T20:03:05.177Z,0.50
2022-12-03T20:05:40.684Z,0.40
2022-12-03T20:08:27.622Z,0.68
2022-12-03T20:11:15.526Z,0.50
2022-12-03T20:13:44.330Z,0.60
2022-12-03T20:16:15.020Z,0.38
2022-12-03T20:18:45.280Z,0.63
2022-12-03T20:21:16.557Z,0.55
2022-12-03T20:23:45.243Z,0.47
2022-12-03T20:26:16.998Z,0.60
2022-12-03T20:28:45.428Z,0.68
2022-12-03T20:31:16.275Z,0.57
2022-12-03T20:33:46.584Z,0.55
2022-12-03T20:36:16.681Z,0.50
2022-12-03T20:38:45.080Z,0.45
2022-12-03T20:41:16.399Z,0.40
2022-12-03T20:43:44.740Z,0.30
2022-12-03T20:46:15.941Z,0.35
2022-12-03T20:48:44.824Z,0.88
2022-12-03T20:51:15.757Z,0.60
2022-12-03T20:54:03.254Z,0.65
2022-12-03T20:56:33.845Z,0.50
2022-12-03T20:59:07.397Z,0.50
2022-12-03T21:01:36.656Z,0.50
2022-12-03T21:04:06.654Z,0.60
2022-12-03T21:06:37.213Z,0.70
2022-12-03T21:09:09.350Z,0.40
2022-12-03T21:11:40.478Z,0.47
2022-12-03T21:14:11.222Z,0.50
2022-12-03T21:17:06.486Z,0.90
2022-12-03T21:19:28.503Z,0.30
2022-12-03T21:21:56.503Z,0.82
2022-12-03T21:24:24.764Z,0.85
2022-12-03T21:26:52.748Z,0.63
2022-12-03T21:29:20.728Z,0.30
2022-12-03T21:31:48.744Z,0.35
2022-12-03T21:34:16.881Z,0.40
2022-12-03T21:36:44.876Z,0.30
2022-12-03T21:39:12.872Z,0.35
2022-12-03T21:41:40.912Z,0.40
2022-12-03T21:44:28.869Z,0.30
2022-12-03T21:47:11.088Z,0.20
2022-12-03T21:49:42.225Z,0.22
2022-12-03T21:52:10.991Z,0.10
2022-12-03T21:54:38.995Z,0.50
2022-12-03T21:57:25.424Z,0.40
2022-12-03T21:59:53.816Z,0.20
2022-12-03T22:05:08.715Z,0.20
2022-12-03T22:07:38.060Z,0.30
2022-12-03T22:10:09.068Z,0.45
2022-12-03T22:12:37.225Z,0.88
2022-12-03T22:15:05.620Z,0.73
2022-12-03T22:17:35.797Z,2.97
2022-12-03T22:20:05.779Z,0.30
2022-12-03T22:22:33.987Z,0.50
2022-12-03T22:25:02.063Z,0.43
2022-12-03T22:27:30.047Z,0.70
2022-12-03T22:29:58.076Z,0.40
2022-12-03T22:32:26.223Z,0.43
2022-12-03T22:34:54.346Z,0.20
2022-12-03T22:37:22.317Z,0.50
2022-12-03T22:39:50.325Z,0.80
2022-12-03T22:42:18.260Z,0.80
2022-12-03T22:44:46.227Z,0.40
2022-12-03T22:47:14.191Z,0.20
2022-12-03T22:49:42.176Z,0.73
2022-12-03T22:52:10.147Z,0.60
2022-12-03T22:54:38.287Z,0.38
2022-12-03T22:57:06.317Z,0.60
2022-12-03T22:59:34.260Z,0.70
2022-12-03T23:02:02.216Z,1.10
2022-12-03T23:04:30.201Z,1.00
2022-12-03T23:06:58.089Z,0.85
2022-12-03T23:09:26.110Z,0.63
2022-12-03T23:11:54.202Z,0.70
2022-12-03T23:14:22.262Z,0.50
2022-12-03T23:16:50.223Z,0.38
2022-12-03T23:19:20.144Z,0.30
2022-12-03T23:21:48.195Z,0.50
2022-12-03T23:24:16.206Z,0.30
2022-12-03T23:26:44.411Z,0.40
2022-12-03T23:29:12.633Z,0.40
2022-12-03T23:31:40.717Z,0.60
2022-12-03T23:34:08.848Z,0.60
2022-12-03T23:36:55.705Z,0.40
2022-12-03T23:39:23.828Z,0.32
2022-12-03T23:41:52.681Z,0.50
2022-12-03T23:44:20.883Z,0.47
2022-12-03T23:46:48.941Z,0.38
2022-12-03T23:49:17.110Z,0.20
2022-12-03T23:52:04.042Z,0.38
2022-12-03T23:54:32.493Z,0.20
2022-12-03T23:59:45.847Z,0.03
